sensor_id;sensor_type;location;lat;lon;timestamp;temperature;humidity
26821;DHT22;37186;51.394;5.454;2023-03-31T00:02:22;14.00;77.30
26821;DHT22;37186;51.394;5.454;2023-03-31T00:05:23;14.00;77.20
26821;DHT22;37186;51.394;5.454;2023-03-31T00:08:25;14.00;77.20
26821;DHT22;37186;51.394;5.454;2023-03-31T00:11:29;14.00;77.20
26821;DHT22;37186;51.394;5.454;2023-03-31T00:14:29;14.00;77.20
26821;DHT22;37186;51.394;5.454;2023-03-31T00:17:30;14.00;77.30
26821;DHT22;37186;51.394;5.454;2023-03-31T00:20:32;14.00;78.20
26821;DHT22;37186;51.394;5.454;2023-03-31T00:23:33;14.00;77.20
26821;DHT22;37186;51.394;5.454;2023-03-31T00:26:34;14.00;77.20
26821;DHT22;37186;51.394;5.454;2023-03-31T00:29:34;14.00;77.30
26821;DHT22;37186;51.394;5.454;2023-03-31T00:32:35;14.00;77.50
26821;DHT22;37186;51.394;5.454;2023-03-31T00:35:36;13.90;77.20
26821;DHT22;37186;51.394;5.454;2023-03-31T00:38:38;14.00;77.40
26821;DHT22;37186;51.394;5.454;2023-03-31T00:41:38;13.90;77.30
26821;DHT22;37186;51.394;5.454;2023-03-31T00:48:16;13.90;77.10
26821;DHT22;37186;51.394;5.454;2023-03-31T00:51:20;13.90;77.70
26821;DHT22;37186;51.394;5.454;2023-03-31T00:54:24;13.90;77.50
26821;DHT22;37186;51.394;5.454;2023-03-31T00:57:26;13.90;77.60
26821;DHT22;37186;51.394;5.454;2023-03-31T01:00:27;13.90;77.40
26821;DHT22;37186;51.394;5.454;2023-03-31T01:03:31;13.90;77.30
26821;DHT22;37186;51.394;5.454;2023-03-31T01:06:36;13.90;77.50
26821;DHT22;37186;51.394;5.454;2023-03-31T01:09:37;13.90;77.40
26821;DHT22;37186;51.394;5.454;2023-03-31T01:12:40;13.90;77.40
26821;DHT22;37186;51.394;5.454;2023-03-31T01:15:42;13.80;77.60
26821;DHT22;37186;51.394;5.454;2023-03-31T01:18:43;13.80;77.90
26821;DHT22;37186;51.394;5.454;2023-03-31T01:22:34;13.80;77.90
26821;DHT22;37186;51.394;5.454;2023-03-31T01:39:01;13.80;77.90
26821;DHT22;37186;51.394;5.454;2023-03-31T01:52:40;13.70;78.00
26821;DHT22;37186;51.394;5.454;2023-03-31T01:56:17;13.70;78.30
26821;DHT22;37186;51.394;5.454;2023-03-31T01:59:29;13.80;77.90
26821;DHT22;37186;51.394;5.454;2023-03-31T02:02:34;13.80;78.10
26821;DHT22;37186;51.394;5.454;2023-03-31T02:05:49;13.70;77.70
26821;DHT22;37186;51.394;5.454;2023-03-31T02:08:59;13.80;78.00
26821;DHT22;37186;51.394;5.454;2023-03-31T02:12:05;13.70;78.50
26821;DHT22;37186;51.394;5.454;2023-03-31T02:15:10;13.70;78.50
26821;DHT22;37186;51.394;5.454;2023-03-31T02:18:15;13.70;77.90
26821;DHT22;37186;51.394;5.454;2023-03-31T02:21:18;13.80;78.50
26821;DHT22;37186;51.394;5.454;2023-03-31T02:24:23;13.70;77.80
26821;DHT22;37186;51.394;5.454;2023-03-31T02:27:29;13.70;77.90
26821;DHT22;37186;51.394;5.454;2023-03-31T02:33:59;13.70;78.60
26821;DHT22;37186;51.394;5.454;2023-03-31T02:37:00;13.70;79.00
26821;DHT22;37186;51.394;5.454;2023-03-31T02:40:05;13.70;78.10
26821;DHT22;37186;51.394;5.454;2023-03-31T02:43:09;13.70;78.00
26821;DHT22;37186;51.394;5.454;2023-03-31T02:46:10;13.70;78.00
26821;DHT22;37186;51.394;5.454;2023-03-31T02:49:12;13.70;78.10
26821;DHT22;37186;51.394;5.454;2023-03-31T02:52:51;13.70;77.90
26821;DHT22;37186;51.394;5.454;2023-03-31T03:15:46;13.60;78.10
26821;DHT22;37186;51.394;5.454;2023-03-31T03:18:57;13.70;78.20
26821;DHT22;37186;51.394;5.454;2023-03-31T03:21:58;13.70;78.30
26821;DHT22;37186;51.394;5.454;2023-03-31T03:24:58;13.70;78.20
26821;DHT22;37186;51.394;5.454;2023-03-31T03:27:59;13.70;78.70
26821;DHT22;37186;51.394;5.454;2023-03-31T03:31:00;13.60;78.20
26821;DHT22;37186;51.394;5.454;2023-03-31T03:34:01;13.60;78.20
26821;DHT22;37186;51.394;5.454;2023-03-31T03:37:02;13.60;78.80
26821;DHT22;37186;51.394;5.454;2023-03-31T03:40:03;13.60;78.20
26821;DHT22;37186;51.394;5.454;2023-03-31T03:43:07;13.60;78.30
26821;DHT22;37186;51.394;5.454;2023-03-31T03:46:08;13.60;78.70
26821;DHT22;37186;51.394;5.454;2023-03-31T03:49:08;13.60;78.20
26821;DHT22;37186;51.394;5.454;2023-03-31T03:52:09;13.60;78.30
26821;DHT22;37186;51.394;5.454;2023-03-31T03:55:10;13.60;78.30
26821;DHT22;37186;51.394;5.454;2023-03-31T03:58:11;13.60;78.10
26821;DHT22;37186;51.394;5.454;2023-03-31T04:01:12;13.60;78.10
26821;DHT22;37186;51.394;5.454;2023-03-31T04:04:13;13.50;78.10
26821;DHT22;37186;51.394;5.454;2023-03-31T04:07:14;13.60;78.10
26821;DHT22;37186;51.394;5.454;2023-03-31T04:10:15;13.60;78.10
26821;DHT22;37186;51.394;5.454;2023-03-31T04:13:16;13.60;78.00
26821;DHT22;37186;51.394;5.454;2023-03-31T04:16:17;13.50;78.00
26821;DHT22;37186;51.394;5.454;2023-03-31T04:19:17;13.60;78.10
26821;DHT22;37186;51.394;5.454;2023-03-31T04:22:18;13.60;78.10
26821;DHT22;37186;51.394;5.454;2023-03-31T04:25:19;13.50;78.00
26821;DHT22;37186;51.394;5.454;2023-03-31T04:28:22;13.60;78.10
26821;DHT22;37186;51.394;5.454;2023-03-31T04:31:23;13.60;78.10
26821;DHT22;37186;51.394;5.454;2023-03-31T04:34:27;13.50;78.20
26821;DHT22;37186;51.394;5.454;2023-03-31T04:37:34;13.50;78.10
26821;DHT22;37186;51.394;5.454;2023-03-31T04:40:38;13.50;78.10
26821;DHT22;37186;51.394;5.454;2023-03-31T04:43:41;13.50;78.10
26821;DHT22;37186;51.394;5.454;2023-03-31T04:46:41;13.50;78.10
26821;DHT22;37186;51.394;5.454;2023-03-31T04:49:42;13.50;78.00
26821;DHT22;37186;51.394;5.454;2023-03-31T04:52:42;13.50;78.10
26821;DHT22;37186;51.394;5.454;2023-03-31T04:55:43;13.50;78.10
26821;DHT22;37186;51.394;5.454;2023-03-31T04:58:43;13.50;78.10
26821;DHT22;37186;51.394;5.454;2023-03-31T05:01:44;13.50;78.50
26821;DHT22;37186;51.394;5.454;2023-03-31T05:04:44;13.50;78.30
26821;DHT22;37186;51.394;5.454;2023-03-31T05:07:45;13.50;78.30
26821;DHT22;37186;51.394;5.454;2023-03-31T05:10:46;13.40;78.70
26821;DHT22;37186;51.394;5.454;2023-03-31T05:13:46;13.40;78.70
26821;DHT22;37186;51.394;5.454;2023-03-31T05:16:47;13.40;78.90
26821;DHT22;37186;51.394;5.454;2023-03-31T05:19:48;13.40;78.70
26821;DHT22;37186;51.394;5.454;2023-03-31T05:22:48;13.40;78.30
26821;DHT22;37186;51.394;5.454;2023-03-31T05:25:50;13.40;78.40
26821;DHT22;37186;51.394;5.454;2023-03-31T05:28:51;13.30;78.60
26821;DHT22;37186;51.394;5.454;2023-03-31T05:31:52;13.30;78.50
26821;DHT22;37186;51.394;5.454;2023-03-31T05:34:53;13.30;78.60
26821;DHT22;37186;51.394;5.454;2023-03-31T05:37:57;13.30;78.70
26821;DHT22;37186;51.394;5.454;2023-03-31T05:40:57;13.30;78.50
26821;DHT22;37186;51.394;5.454;2023-03-31T05:43:58;13.30;78.50
26821;DHT22;37186;51.394;5.454;2023-03-31T05:46:59;13.30;78.40
26821;DHT22;37186;51.394;5.454;2023-03-31T05:49:59;13.30;78.60
26821;DHT22;37186;51.394;5.454;2023-03-31T05:53:00;13.30;78.40
26821;DHT22;37186;51.394;5.454;2023-03-31T05:56:03;13.30;79.10
26821;DHT22;37186;51.394;5.454;2023-03-31T05:59:05;13.30;78.80
26821;DHT22;37186;51.394;5.454;2023-03-31T06:02:06;13.30;78.50
26821;DHT22;37186;51.394;5.454;2023-03-31T06:05:06;13.30;78.80
26821;DHT22;37186;51.394;5.454;2023-03-31T06:08:07;13.30;78.60
26821;DHT22;37186;51.394;5.454;2023-03-31T06:11:13;13.30;79.10
26821;DHT22;37186;51.394;5.454;2023-03-31T06:14:14;13.30;78.60
26821;DHT22;37186;51.394;5.454;2023-03-31T06:17:14;13.30;78.90
26821;DHT22;37186;51.394;5.454;2023-03-31T06:20:15;13.30;78.80
26821;DHT22;37186;51.394;5.454;2023-03-31T06:23:16;13.30;78.60
26821;DHT22;37186;51.394;5.454;2023-03-31T06:26:18;13.30;78.70
26821;DHT22;37186;51.394;5.454;2023-03-31T06:29:19;13.20;78.60
26821;DHT22;37186;51.394;5.454;2023-03-31T06:32:19;13.20;78.80
26821;DHT22;37186;51.394;5.454;2023-03-31T06:35:20;13.20;78.80
26821;DHT22;37186;51.394;5.454;2023-03-31T06:38:21;13.30;79.10
26821;DHT22;37186;51.394;5.454;2023-03-31T06:41:22;13.30;79.50
26821;DHT22;37186;51.394;5.454;2023-03-31T06:44:22;13.20;79.30
26821;DHT22;37186;51.394;5.454;2023-03-31T06:47:23;13.30;79.60
26821;DHT22;37186;51.394;5.454;2023-03-31T06:50:24;13.20;79.00
26821;DHT22;37186;51.394;5.454;2023-03-31T06:53:25;13.20;80.10
26821;DHT22;37186;51.394;5.454;2023-03-31T06:56:25;13.30;79.10
26821;DHT22;37186;51.394;5.454;2023-03-31T06:59:27;13.20;79.40
26821;DHT22;37186;51.394;5.454;2023-03-31T07:02:27;13.20;79.50
26821;DHT22;37186;51.394;5.454;2023-03-31T07:05:29;13.30;79.80
26821;DHT22;37186;51.394;5.454;2023-03-31T07:08:30;13.30;79.90
26821;DHT22;37186;51.394;5.454;2023-03-31T07:11:30;13.30;79.40
26821;DHT22;37186;51.394;5.454;2023-03-31T07:14:31;13.30;79.30
26821;DHT22;37186;51.394;5.454;2023-03-31T07:17:32;13.20;79.80
26821;DHT22;37186;51.394;5.454;2023-03-31T07:20:33;13.20;79.50
26821;DHT22;37186;51.394;5.454;2023-03-31T07:23:34;13.30;79.60
26821;DHT22;37186;51.394;5.454;2023-03-31T07:26:35;13.30;79.80
26821;DHT22;37186;51.394;5.454;2023-03-31T07:29:35;13.30;81.00
26821;DHT22;37186;51.394;5.454;2023-03-31T07:32:36;13.30;81.30
26821;DHT22;37186;51.394;5.454;2023-03-31T07:35:41;13.30;80.10
26821;DHT22;37186;51.394;5.454;2023-03-31T07:38:43;13.30;80.00
26821;DHT22;37186;51.394;5.454;2023-03-31T07:41:43;13.30;79.80
26821;DHT22;37186;51.394;5.454;2023-03-31T07:44:44;13.30;79.80
26821;DHT22;37186;51.394;5.454;2023-03-31T07:47:45;13.30;80.20
26821;DHT22;37186;51.394;5.454;2023-03-31T07:50:47;13.30;80.10
26821;DHT22;37186;51.394;5.454;2023-03-31T07:53:48;13.40;80.20
26821;DHT22;37186;51.394;5.454;2023-03-31T07:56:48;13.30;80.10
26821;DHT22;37186;51.394;5.454;2023-03-31T07:59:49;13.40;80.00
26821;DHT22;37186;51.394;5.454;2023-03-31T08:02:50;13.40;79.90
26821;DHT22;37186;51.394;5.454;2023-03-31T08:05:51;13.40;80.00
26821;DHT22;37186;51.394;5.454;2023-03-31T08:08:52;13.40;79.90
26821;DHT22;37186;51.394;5.454;2023-03-31T08:11:53;13.50;79.90
26821;DHT22;37186;51.394;5.454;2023-03-31T08:14:53;13.50;80.30
26821;DHT22;37186;51.394;5.454;2023-03-31T08:17:54;13.50;80.30
26821;DHT22;37186;51.394;5.454;2023-03-31T08:20:54;13.50;80.60
26821;DHT22;37186;51.394;5.454;2023-03-31T08:23:55;13.60;80.60
26821;DHT22;37186;51.394;5.454;2023-03-31T08:26:56;13.70;80.30
26821;DHT22;37186;51.394;5.454;2023-03-31T08:29:56;13.70;80.30
26821;DHT22;37186;51.394;5.454;2023-03-31T08:32:57;13.70;81.40
26821;DHT22;37186;51.394;5.454;2023-03-31T08:36:01;13.70;80.40
26821;DHT22;37186;51.394;5.454;2023-03-31T08:39:02;13.80;80.60
26821;DHT22;37186;51.394;5.454;2023-03-31T08:42:10;13.80;81.60
26821;DHT22;37186;51.394;5.454;2023-03-31T08:45:22;13.80;80.60
26821;DHT22;37186;51.394;5.454;2023-03-31T08:48:28;13.80;81.20
26821;DHT22;37186;51.394;5.454;2023-03-31T08:51:39;13.90;80.80
26821;DHT22;37186;51.394;5.454;2023-03-31T08:54:43;13.90;80.80
26821;DHT22;37186;51.394;5.454;2023-03-31T08:57:58;13.80;80.60
26821;DHT22;37186;51.394;5.454;2023-03-31T09:07:59;14.00;81.20
26821;DHT22;37186;51.394;5.454;2023-03-31T09:14:40;14.00;81.40
26821;DHT22;37186;51.394;5.454;2023-03-31T09:17:46;14.00;80.90
26821;DHT22;37186;51.394;5.454;2023-03-31T09:27:57;14.10;81.00
26821;DHT22;37186;51.394;5.454;2023-03-31T09:30:58;14.10;80.70
26821;DHT22;37186;51.394;5.454;2023-03-31T09:34:00;14.10;80.80
26821;DHT22;37186;51.394;5.454;2023-03-31T09:37:10;14.10;80.60
26821;DHT22;37186;51.394;5.454;2023-03-31T09:40:16;14.10;80.50
26821;DHT22;37186;51.394;5.454;2023-03-31T09:43:28;14.20;80.80
26821;DHT22;37186;51.394;5.454;2023-03-31T09:46:35;14.20;80.50
26821;DHT22;37186;51.394;5.454;2023-03-31T09:49:36;14.20;80.70
26821;DHT22;37186;51.394;5.454;2023-03-31T09:52:45;14.20;80.70
26821;DHT22;37186;51.394;5.454;2023-03-31T09:55:53;14.20;80.50
26821;DHT22;37186;51.394;5.454;2023-03-31T09:59:00;14.30;80.50
26821;DHT22;37186;51.394;5.454;2023-03-31T10:02:11;14.20;80.40
26821;DHT22;37186;51.394;5.454;2023-03-31T10:05:34;14.30;80.70
26821;DHT22;37186;51.394;5.454;2023-03-31T10:08:42;14.30;80.40
26821;DHT22;37186;51.394;5.454;2023-03-31T10:12:07;14.30;80.20
26821;DHT22;37186;51.394;5.454;2023-03-31T10:15:19;14.40;80.30
26821;DHT22;37186;51.394;5.454;2023-03-31T10:18:20;14.40;80.00
26821;DHT22;37186;51.394;5.454;2023-03-31T10:21:35;14.40;80.10
26821;DHT22;37186;51.394;5.454;2023-03-31T10:24:43;14.50;80.40
26821;DHT22;37186;51.394;5.454;2023-03-31T10:27:47;14.50;80.00
26821;DHT22;37186;51.394;5.454;2023-03-31T10:30:51;14.50;79.80
26821;DHT22;37186;51.394;5.454;2023-03-31T10:33:52;14.50;79.60
26821;DHT22;37186;51.394;5.454;2023-03-31T10:36:53;14.60;79.80
26821;DHT22;37186;51.394;5.454;2023-03-31T10:40:12;14.60;79.90
26821;DHT22;37186;51.394;5.454;2023-03-31T10:43:16;14.60;79.80
26821;DHT22;37186;51.394;5.454;2023-03-31T10:46:18;14.60;79.80
26821;DHT22;37186;51.394;5.454;2023-03-31T10:52:24;14.60;79.80
26821;DHT22;37186;51.394;5.454;2023-03-31T10:55:33;14.60;79.50
26821;DHT22;37186;51.394;5.454;2023-03-31T11:02:45;14.60;79.60
26821;DHT22;37186;51.394;5.454;2023-03-31T11:05:34;14.60;79.50
26821;DHT22;37186;51.394;5.454;2023-03-31T11:08:59;14.60;79.50
26821;DHT22;37186;51.394;5.454;2023-03-31T11:15:40;14.70;79.50
26821;DHT22;37186;51.394;5.454;2023-03-31T11:32:26;14.70;79.10
26821;DHT22;37186;51.394;5.454;2023-03-31T11:39:43;14.70;79.10
26821;DHT22;37186;51.394;5.454;2023-03-31T11:42:53;14.70;78.60
26821;DHT22;37186;51.394;5.454;2023-03-31T11:49:23;14.70;78.60
26821;DHT22;37186;51.394;5.454;2023-03-31T11:52:29;14.70;78.60
26821;DHT22;37186;51.394;5.454;2023-03-31T11:55:31;14.70;78.30
26821;DHT22;37186;51.394;5.454;2023-03-31T11:58:36;14.70;78.10
26821;DHT22;37186;51.394;5.454;2023-03-31T12:05:07;14.70;77.80
26821;DHT22;37186;51.394;5.454;2023-03-31T12:08:27;14.70;77.70
26821;DHT22;37186;51.394;5.454;2023-03-31T12:12:04;14.70;78.10
26821;DHT22;37186;51.394;5.454;2023-03-31T12:15:13;14.80;78.50
26821;DHT22;37186;51.394;5.454;2023-03-31T12:18:21;14.80;77.60
26821;DHT22;37186;51.394;5.454;2023-03-31T12:21:26;14.80;78.10
26821;DHT22;37186;51.394;5.454;2023-03-31T12:24:29;14.90;78.20
26821;DHT22;37186;51.394;5.454;2023-03-31T12:27:42;14.90;78.30
26821;DHT22;37186;51.394;5.454;2023-03-31T12:30:44;15.00;77.90
26821;DHT22;37186;51.394;5.454;2023-03-31T12:33:52;14.90;78.10
26821;DHT22;37186;51.394;5.454;2023-03-31T12:37:19;15.00;78.00
26821;DHT22;37186;51.394;5.454;2023-03-31T12:57:23;15.30;77.90
26821;DHT22;37186;51.394;5.454;2023-03-31T13:00:26;15.30;77.70
26821;DHT22;37186;51.394;5.454;2023-03-31T13:09:39;15.30;77.70
26821;DHT22;37186;51.394;5.454;2023-03-31T13:13:03;15.40;77.60
26821;DHT22;37186;51.394;5.454;2023-03-31T13:16:04;15.40;78.10
26821;DHT22;37186;51.394;5.454;2023-03-31T13:19:05;15.40;77.90
26821;DHT22;37186;51.394;5.454;2023-03-31T13:22:06;15.40;77.90
26821;DHT22;37186;51.394;5.454;2023-03-31T13:35:13;15.40;78.00
26821;DHT22;37186;51.394;5.454;2023-03-31T14:01:16;15.20;78.70
26821;DHT22;37186;51.394;5.454;2023-03-31T14:08:07;15.20;78.70
26821;DHT22;37186;51.394;5.454;2023-03-31T14:11:28;15.10;78.60
26821;DHT22;37186;51.394;5.454;2023-03-31T14:14:28;15.10;78.70
26821;DHT22;37186;51.394;5.454;2023-03-31T14:17:35;15.10;78.60
26821;DHT22;37186;51.394;5.454;2023-03-31T14:27:16;15.00;78.40
26821;DHT22;37186;51.394;5.454;2023-03-31T14:30:43;14.90;78.40
26821;DHT22;37186;51.394;5.454;2023-03-31T14:34:07;14.90;78.30
26821;DHT22;37186;51.394;5.454;2023-03-31T14:37:15;14.90;78.30
26821;DHT22;37186;51.394;5.454;2023-03-31T14:40:21;14.80;78.40
26821;DHT22;37186;51.394;5.454;2023-03-31T14:43:25;14.80;78.00
26821;DHT22;37186;51.394;5.454;2023-03-31T14:46:29;14.70;78.20
26821;DHT22;37186;51.394;5.454;2023-03-31T14:49:37;14.70;78.20
26821;DHT22;37186;51.394;5.454;2023-03-31T14:52:38;14.70;78.20
26821;DHT22;37186;51.394;5.454;2023-03-31T14:55:39;14.70;77.90
26821;DHT22;37186;51.394;5.454;2023-03-31T14:58:43;14.70;78.30
26821;DHT22;37186;51.394;5.454;2023-03-31T15:01:45;14.70;77.90
26821;DHT22;37186;51.394;5.454;2023-03-31T15:04:48;14.70;77.90
26821;DHT22;37186;51.394;5.454;2023-03-31T15:07:51;14.70;77.30
26821;DHT22;37186;51.394;5.454;2023-03-31T15:11:00;14.70;76.90
26821;DHT22;37186;51.394;5.454;2023-03-31T15:14:02;14.70;77.10
26821;DHT22;37186;51.394;5.454;2023-03-31T15:17:02;14.70;77.30
26821;DHT22;37186;51.394;5.454;2023-03-31T15:23:25;14.70;77.40
26821;DHT22;37186;51.394;5.454;2023-03-31T15:30:03;14.60;77.70
26821;DHT22;37186;51.394;5.454;2023-03-31T15:33:17;14.60;77.60
26821;DHT22;37186;51.394;5.454;2023-03-31T15:36:20;14.60;77.70
26821;DHT22;37186;51.394;5.454;2023-03-31T15:39:25;14.60;77.80
26821;DHT22;37186;51.394;5.454;2023-03-31T15:42:27;14.50;78.00
26821;DHT22;37186;51.394;5.454;2023-03-31T15:45:50;14.50;78.00
26821;DHT22;37186;51.394;5.454;2023-03-31T15:48:54;14.50;78.00
26821;DHT22;37186;51.394;5.454;2023-03-31T15:51:55;14.50;77.90
26821;DHT22;37186;51.394;5.454;2023-03-31T15:54:56;14.50;78.10
26821;DHT22;37186;51.394;5.454;2023-03-31T15:57:59;14.50;78.20
26821;DHT22;37186;51.394;5.454;2023-03-31T16:01:02;14.50;78.10
26821;DHT22;37186;51.394;5.454;2023-03-31T16:04:10;14.50;78.20
26821;DHT22;37186;51.394;5.454;2023-03-31T16:10:21;14.50;78.20
26821;DHT22;37186;51.394;5.454;2023-03-31T16:13:22;14.50;78.20
26821;DHT22;37186;51.394;5.454;2023-03-31T16:16:25;14.40;78.30
26821;DHT22;37186;51.394;5.454;2023-03-31T16:19:30;14.40;77.80
26821;DHT22;37186;51.394;5.454;2023-03-31T16:22:44;14.40;78.00
26821;DHT22;37186;51.394;5.454;2023-03-31T16:25:46;14.40;77.70
26821;DHT22;37186;51.394;5.454;2023-03-31T16:28:51;14.40;78.00
26821;DHT22;37186;51.394;5.454;2023-03-31T16:32:07;14.30;78.10
26821;DHT22;37186;51.394;5.454;2023-03-31T16:35:08;14.40;77.90
26821;DHT22;37186;51.394;5.454;2023-03-31T16:38:10;14.30;78.00
26821;DHT22;37186;51.394;5.454;2023-03-31T16:41:11;14.30;78.00
26821;DHT22;37186;51.394;5.454;2023-03-31T16:44:14;14.30;77.90
26821;DHT22;37186;51.394;5.454;2023-03-31T16:47:15;14.30;77.80
26821;DHT22;37186;51.394;5.454;2023-03-31T16:50:16;14.30;77.90
26821;DHT22;37186;51.394;5.454;2023-03-31T16:53:18;14.20;78.00
26821;DHT22;37186;51.394;5.454;2023-03-31T16:56:19;14.20;77.90
26821;DHT22;37186;51.394;5.454;2023-03-31T16:59:21;14.20;78.10
26821;DHT22;37186;51.394;5.454;2023-03-31T17:02:22;14.20;78.10
26821;DHT22;37186;51.394;5.454;2023-03-31T17:05:23;14.20;78.20
26821;DHT22;37186;51.394;5.454;2023-03-31T17:08:25;14.20;78.20
26821;DHT22;37186;51.394;5.454;2023-03-31T17:11:26;14.20;78.30
26821;DHT22;37186;51.394;5.454;2023-03-31T17:14:29;14.20;78.50
26821;DHT22;37186;51.394;5.454;2023-03-31T17:17:29;14.10;78.40
26821;DHT22;37186;51.394;5.454;2023-03-31T17:20:31;14.10;78.40
26821;DHT22;37186;51.394;5.454;2023-03-31T17:23:32;14.10;78.40
26821;DHT22;37186;51.394;5.454;2023-03-31T17:26:33;14.10;78.60
26821;DHT22;37186;51.394;5.454;2023-03-31T17:29:35;14.10;78.70
26821;DHT22;37186;51.394;5.454;2023-03-31T17:32:35;14.10;78.60
26821;DHT22;37186;51.394;5.454;2023-03-31T17:35:36;14.00;78.80
26821;DHT22;37186;51.394;5.454;2023-03-31T17:38:37;14.10;78.80
26821;DHT22;37186;51.394;5.454;2023-03-31T17:41:38;14.00;78.70
26821;DHT22;37186;51.394;5.454;2023-03-31T17:44:40;14.00;78.90
26821;DHT22;37186;51.394;5.454;2023-03-31T17:47:40;14.00;79.00
26821;DHT22;37186;51.394;5.454;2023-03-31T17:50:41;14.00;79.00
26821;DHT22;37186;51.394;5.454;2023-03-31T17:53:43;14.00;78.90
26821;DHT22;37186;51.394;5.454;2023-03-31T17:56:44;13.90;79.00
26821;DHT22;37186;51.394;5.454;2023-03-31T17:59:48;13.90;78.70
26821;DHT22;37186;51.394;5.454;2023-03-31T18:02:49;13.90;79.00
26821;DHT22;37186;51.394;5.454;2023-03-31T18:05:50;13.90;79.10
26821;DHT22;37186;51.394;5.454;2023-03-31T18:08:50;13.90;79.10
26821;DHT22;37186;51.394;5.454;2023-03-31T18:11:51;13.90;79.20
26821;DHT22;37186;51.394;5.454;2023-03-31T18:14:53;13.90;79.10
26821;DHT22;37186;51.394;5.454;2023-03-31T18:17:53;13.80;79.40
26821;DHT22;37186;51.394;5.454;2023-03-31T18:20:54;13.80;79.30
26821;DHT22;37186;51.394;5.454;2023-03-31T18:23:55;13.80;79.40
26821;DHT22;37186;51.394;5.454;2023-03-31T18:26:56;13.80;79.60
26821;DHT22;37186;51.394;5.454;2023-03-31T18:29:56;13.80;79.70
26821;DHT22;37186;51.394;5.454;2023-03-31T18:32:57;13.80;79.30
26821;DHT22;37186;51.394;5.454;2023-03-31T18:35:57;13.80;79.60
26821;DHT22;37186;51.394;5.454;2023-03-31T18:38:58;13.80;79.60
26821;DHT22;37186;51.394;5.454;2023-03-31T18:41:58;13.80;79.60
26821;DHT22;37186;51.394;5.454;2023-03-31T18:44:59;13.70;79.80
26821;DHT22;37186;51.394;5.454;2023-03-31T18:48:00;13.60;79.60
26821;DHT22;37186;51.394;5.454;2023-03-31T18:51:01;13.60;79.70
26821;DHT22;37186;51.394;5.454;2023-03-31T18:54:03;13.60;79.60
26821;DHT22;37186;51.394;5.454;2023-03-31T18:57:04;13.60;79.90
26821;DHT22;37186;51.394;5.454;2023-03-31T19:00:06;13.60;80.00
26821;DHT22;37186;51.394;5.454;2023-03-31T19:03:07;13.60;79.90
26821;DHT22;37186;51.394;5.454;2023-03-31T19:06:08;13.60;80.40
26821;DHT22;37186;51.394;5.454;2023-03-31T19:09:09;13.60;80.40
26821;DHT22;37186;51.394;5.454;2023-03-31T19:12:10;13.50;80.00
26821;DHT22;37186;51.394;5.454;2023-03-31T19:15:11;13.50;79.90
26821;DHT22;37186;51.394;5.454;2023-03-31T19:18:13;13.50;80.20
26821;DHT22;37186;51.394;5.454;2023-03-31T19:21:14;13.50;80.50
26821;DHT22;37186;51.394;5.454;2023-03-31T19:24:14;13.50;80.30
26821;DHT22;37186;51.394;5.454;2023-03-31T19:27:16;13.40;80.50
26821;DHT22;37186;51.394;5.454;2023-03-31T19:30:20;13.40;80.40
26821;DHT22;37186;51.394;5.454;2023-03-31T19:33:21;13.40;80.20
26821;DHT22;37186;51.394;5.454;2023-03-31T19:36:21;13.40;80.70
26821;DHT22;37186;51.394;5.454;2023-03-31T19:39:22;13.40;80.60
26821;DHT22;37186;51.394;5.454;2023-03-31T19:42:24;13.40;80.70
26821;DHT22;37186;51.394;5.454;2023-03-31T19:45:25;13.40;81.00
26821;DHT22;37186;51.394;5.454;2023-03-31T19:48:28;13.30;80.60
26821;DHT22;37186;51.394;5.454;2023-03-31T19:51:30;13.30;80.60
26821;DHT22;37186;51.394;5.454;2023-03-31T19:54:31;13.30;80.50
26821;DHT22;37186;51.394;5.454;2023-03-31T19:57:31;13.30;80.60
26821;DHT22;37186;51.394;5.454;2023-03-31T20:00:32;13.30;80.80
26821;DHT22;37186;51.394;5.454;2023-03-31T20:03:33;13.30;81.00
26821;DHT22;37186;51.394;5.454;2023-03-31T20:06:34;13.30;81.00
26821;DHT22;37186;51.394;5.454;2023-03-31T20:09:35;13.30;80.70
26821;DHT22;37186;51.394;5.454;2023-03-31T20:12:35;13.20;80.60
26821;DHT22;37186;51.394;5.454;2023-03-31T20:15:36;13.20;80.90
26821;DHT22;37186;51.394;5.454;2023-03-31T20:18:37;13.20;80.80
26821;DHT22;37186;51.394;5.454;2023-03-31T20:21:38;13.20;81.00
26821;DHT22;37186;51.394;5.454;2023-03-31T20:24:39;13.20;80.70
26821;DHT22;37186;51.394;5.454;2023-03-31T20:27:39;13.20;80.60
26821;DHT22;37186;51.394;5.454;2023-03-31T20:30:40;13.20;80.90
26821;DHT22;37186;51.394;5.454;2023-03-31T20:33:41;13.20;80.60
26821;DHT22;37186;51.394;5.454;2023-03-31T20:36:45;13.20;80.80
26821;DHT22;37186;51.394;5.454;2023-03-31T20:39:45;13.20;81.00
26821;DHT22;37186;51.394;5.454;2023-03-31T20:42:47;13.20;81.00
26821;DHT22;37186;51.394;5.454;2023-03-31T20:45:55;13.20;80.80
26821;DHT22;37186;51.394;5.454;2023-03-31T20:49:02;13.20;81.10
26821;DHT22;37186;51.394;5.454;2023-03-31T20:52:03;13.20;81.20
26821;DHT22;37186;51.394;5.454;2023-03-31T20:55:04;13.20;81.00
26821;DHT22;37186;51.394;5.454;2023-03-31T20:58:05;13.10;81.20
26821;DHT22;37186;51.394;5.454;2023-03-31T21:01:06;13.20;81.10
26821;DHT22;37186;51.394;5.454;2023-03-31T21:04:08;13.10;81.10
26821;DHT22;37186;51.394;5.454;2023-03-31T21:07:10;13.10;80.60
26821;DHT22;37186;51.394;5.454;2023-03-31T21:10:10;13.10;80.90
26821;DHT22;37186;51.394;5.454;2023-03-31T21:13:13;13.10;80.90
26821;DHT22;37186;51.394;5.454;2023-03-31T21:16:15;13.10;81.30
26821;DHT22;37186;51.394;5.454;2023-03-31T21:19:16;13.10;81.50
26821;DHT22;37186;51.394;5.454;2023-03-31T21:22:17;13.10;81.10
26821;DHT22;37186;51.394;5.454;2023-03-31T21:25:17;13.10;81.40
26821;DHT22;37186;51.394;5.454;2023-03-31T21:28:20;13.10;81.20
26821;DHT22;37186;51.394;5.454;2023-03-31T21:31:23;13.10;81.30
26821;DHT22;37186;51.394;5.454;2023-03-31T21:34:24;13.00;81.30
26821;DHT22;37186;51.394;5.454;2023-03-31T21:37:24;13.00;81.30
26821;DHT22;37186;51.394;5.454;2023-03-31T21:40:27;13.00;81.40
26821;DHT22;37186;51.394;5.454;2023-03-31T21:43:27;13.00;81.20
26821;DHT22;37186;51.394;5.454;2023-03-31T21:46:29;13.00;81.80
26821;DHT22;37186;51.394;5.454;2023-03-31T21:49:30;13.00;82.10
26821;DHT22;37186;51.394;5.454;2023-03-31T21:52:31;13.00;81.50
26821;DHT22;37186;51.394;5.454;2023-03-31T21:55:34;12.90;82.00
26821;DHT22;37186;51.394;5.454;2023-03-31T21:58:35;13.00;81.80
26821;DHT22;37186;51.394;5.454;2023-03-31T22:01:35;13.00;81.60
26821;DHT22;37186;51.394;5.454;2023-03-31T22:04:36;12.90;81.70
26821;DHT22;37186;51.394;5.454;2023-03-31T22:07:37;12.90;81.80
26821;DHT22;37186;51.394;5.454;2023-03-31T22:10:37;12.90;81.70
26821;DHT22;37186;51.394;5.454;2023-03-31T22:13:38;12.90;81.70
26821;DHT22;37186;51.394;5.454;2023-03-31T22:16:39;12.80;82.10
26821;DHT22;37186;51.394;5.454;2023-03-31T22:19:39;12.90;82.00